sensor_id;sensor_type;location;lat;lon;timestamp;temperature;humidity
20700;DHT22;10511;51.232;9.420;2023-09-07T00:01:35;18.50;99.90
20700;DHT22;10511;51.232;9.420;2023-09-07T00:04:02;18.40;99.90
20700;DHT22;10511;51.232;9.420;2023-09-07T00:06:29;18.40;99.90
20700;DHT22;10511;51.232;9.420;2023-09-07T00:08:56;18.30;99.90
20700;DHT22;10511;51.232;9.420;2023-09-07T00:11:23;18.30;99.90
20700;DHT22;10511;51.232;9.420;2023-09-07T00:13:50;18.40;99.90
20700;DHT22;10511;51.232;9.420;2023-09-07T00:16:18;18.50;99.90
20700;DHT22;10511;51.232;9.420;2023-09-07T00:18:46;18.60;99.90
20700;DHT22;10511;51.232;9.420;2023-09-07T00:21:12;18.70;99.90
20700;DHT22;10511;51.232;9.420;2023-09-07T00:23:40;18.90;99.90
20700;DHT22;10511;51.232;9.420;2023-09-07T00:26:07;18.80;99.90
20700;DHT22;10511;51.232;9.420;2023-09-07T00:28:34;18.80;99.90
20700;DHT22;10511;51.232;9.420;2023-09-07T00:31:01;18.60;99.90
20700;DHT22;10511;51.232;9.420;2023-09-07T00:33:29;18.50;99.90
20700;DHT22;10511;51.232;9.420;2023-09-07T00:35:56;18.40;99.90
20700;DHT22;10511;51.232;9.420;2023-09-07T00:38:23;18.20;99.90
20700;DHT22;10511;51.232;9.420;2023-09-07T00:40:50;18.20;99.90
20700;DHT22;10511;51.232;9.420;2023-09-07T00:43:17;18.10;99.90
20700;DHT22;10511;51.232;9.420;2023-09-07T00:45:44;18.20;99.90
20700;DHT22;10511;51.232;9.420;2023-09-07T00:48:12;18.30;99.90
20700;DHT22;10511;51.232;9.420;2023-09-07T00:50:41;18.20;99.90
20700;DHT22;10511;51.232;9.420;2023-09-07T00:53:10;18.10;99.90
20700;DHT22;10511;51.232;9.420;2023-09-07T00:55:37;18.10;99.90
20700;DHT22;10511;51.232;9.420;2023-09-07T00:58:05;18.20;99.90
20700;DHT22;10511;51.232;9.420;2023-09-07T01:00:32;18.20;99.90
20700;DHT22;10511;51.232;9.420;2023-09-07T01:02:59;18.30;99.90
20700;DHT22;10511;51.232;9.420;2023-09-07T01:05:32;18.30;99.90
20700;DHT22;10511;51.232;9.420;2023-09-07T01:08:08;18.50;99.90
20700;DHT22;10511;51.232;9.420;2023-09-07T01:10:36;18.60;99.90
20700;DHT22;10511;51.232;9.420;2023-09-07T01:13:03;18.70;99.90
20700;DHT22;10511;51.232;9.420;2023-09-07T01:15:31;18.80;99.90
20700;DHT22;10511;51.232;9.420;2023-09-07T01:17:58;18.80;99.90
20700;DHT22;10511;51.232;9.420;2023-09-07T01:20:26;18.80;99.90
20700;DHT22;10511;51.232;9.420;2023-09-07T01:22:55;18.70;99.90
20700;DHT22;10511;51.232;9.420;2023-09-07T01:25:23;18.70;99.90
20700;DHT22;10511;51.232;9.420;2023-09-07T01:27:50;18.70;99.90
20700;DHT22;10511;51.232;9.420;2023-09-07T01:30:17;18.70;99.90
20700;DHT22;10511;51.232;9.420;2023-09-07T01:32:45;18.70;99.90
20700;DHT22;10511;51.232;9.420;2023-09-07T01:35:15;18.70;99.90
20700;DHT22;10511;51.232;9.420;2023-09-07T01:37:43;18.60;99.90
20700;DHT22;10511;51.232;9.420;2023-09-07T01:40:12;18.40;99.90
20700;DHT22;10511;51.232;9.420;2023-09-07T01:42:39;18.40;99.90
20700;DHT22;10511;51.232;9.420;2023-09-07T01:45:07;18.30;99.90
20700;DHT22;10511;51.232;9.420;2023-09-07T01:47:34;18.30;99.90
20700;DHT22;10511;51.232;9.420;2023-09-07T01:50:01;18.20;99.90
20700;DHT22;10511;51.232;9.420;2023-09-07T01:52:28;18.20;99.90
20700;DHT22;10511;51.232;9.420;2023-09-07T01:54:57;18.10;99.90
20700;DHT22;10511;51.232;9.420;2023-09-07T01:57:25;18.00;99.90
20700;DHT22;10511;51.232;9.420;2023-09-07T01:59:52;17.70;99.90
20700;DHT22;10511;51.232;9.420;2023-09-07T02:02:19;17.50;99.90
20700;DHT22;10511;51.232;9.420;2023-09-07T02:04:46;17.20;99.90
20700;DHT22;10511;51.232;9.420;2023-09-07T02:07:13;17.00;99.90
20700;DHT22;10511;51.232;9.420;2023-09-07T02:09:41;16.80;99.90
20700;DHT22;10511;51.232;9.420;2023-09-07T02:12:08;16.40;99.90
20700;DHT22;10511;51.232;9.420;2023-09-07T02:14:37;16.20;99.90
20700;DHT22;10511;51.232;9.420;2023-09-07T02:17:04;16.10;99.90
20700;DHT22;10511;51.232;9.420;2023-09-07T02:19:31;16.10;99.90
20700;DHT22;10511;51.232;9.420;2023-09-07T02:21:58;16.30;99.90
20700;DHT22;10511;51.232;9.420;2023-09-07T02:24:25;16.40;99.90
20700;DHT22;10511;51.232;9.420;2023-09-07T02:26:52;16.60;99.90
20700;DHT22;10511;51.232;9.420;2023-09-07T02:29:19;16.70;99.90
20700;DHT22;10511;51.232;9.420;2023-09-07T02:31:47;16.80;99.90
20700;DHT22;10511;51.232;9.420;2023-09-07T02:34:14;16.90;99.90
20700;DHT22;10511;51.232;9.420;2023-09-07T02:36:41;17.00;99.90
20700;DHT22;10511;51.232;9.420;2023-09-07T02:39:08;17.10;99.90
20700;DHT22;10511;51.232;9.420;2023-09-07T02:41:37;17.10;99.90
20700;DHT22;10511;51.232;9.420;2023-09-07T02:44:04;17.10;99.90
20700;DHT22;10511;51.232;9.420;2023-09-07T02:46:31;17.20;99.90
20700;DHT22;10511;51.232;9.420;2023-09-07T02:49:00;17.20;99.90
20700;DHT22;10511;51.232;9.420;2023-09-07T02:51:27;17.30;99.90
20700;DHT22;10511;51.232;9.420;2023-09-07T02:53:55;17.00;99.90
20700;DHT22;10511;51.232;9.420;2023-09-07T02:56:22;17.00;99.90
20700;DHT22;10511;51.232;9.420;2023-09-07T02:58:49;17.10;99.90
20700;DHT22;10511;51.232;9.420;2023-09-07T03:01:16;17.10;99.90
20700;DHT22;10511;51.232;9.420;2023-09-07T03:03:46;17.10;99.90
20700;DHT22;10511;51.232;9.420;2023-09-07T03:06:16;16.90;99.90
20700;DHT22;10511;51.232;9.420;2023-09-07T03:08:43;17.00;99.90
20700;DHT22;10511;51.232;9.420;2023-09-07T03:11:10;17.10;99.90
20700;DHT22;10511;51.232;9.420;2023-09-07T03:13:38;17.20;99.90
20700;DHT22;10511;51.232;9.420;2023-09-07T03:16:05;17.20;99.90
20700;DHT22;10511;51.232;9.420;2023-09-07T03:18:32;17.20;99.90
20700;DHT22;10511;51.232;9.420;2023-09-07T03:21:00;17.10;99.90
20700;DHT22;10511;51.232;9.420;2023-09-07T03:23:31;16.90;99.90
20700;DHT22;10511;51.232;9.420;2023-09-07T03:25:58;16.90;99.90
20700;DHT22;10511;51.232;9.420;2023-09-07T03:28:25;16.90;99.90
20700;DHT22;10511;51.232;9.420;2023-09-07T03:30:53;17.00;99.90
20700;DHT22;10511;51.232;9.420;2023-09-07T03:33:20;17.00;99.90
20700;DHT22;10511;51.232;9.420;2023-09-07T03:35:47;17.10;99.90
20700;DHT22;10511;51.232;9.420;2023-09-07T03:38:14;17.00;99.90
20700;DHT22;10511;51.232;9.420;2023-09-07T03:40:42;16.80;99.90
20700;DHT22;10511;51.232;9.420;2023-09-07T03:43:10;16.80;99.90
20700;DHT22;10511;51.232;9.420;2023-09-07T03:45:37;16.70;99.90
20700;DHT22;10511;51.232;9.420;2023-09-07T03:48:04;16.80;99.90
20700;DHT22;10511;51.232;9.420;2023-09-07T03:50:31;16.80;99.90
20700;DHT22;10511;51.232;9.420;2023-09-07T03:52:58;16.70;99.90
20700;DHT22;10511;51.232;9.420;2023-09-07T03:55:25;16.80;99.90
20700;DHT22;10511;51.232;9.420;2023-09-07T03:57:54;16.80;99.90
20700;DHT22;10511;51.232;9.420;2023-09-07T04:00:21;16.80;99.90
20700;DHT22;10511;51.232;9.420;2023-09-07T04:02:49;16.80;99.90
20700;DHT22;10511;51.232;9.420;2023-09-07T04:05:16;16.80;99.90
20700;DHT22;10511;51.232;9.420;2023-09-07T04:07:43;16.80;99.90
20700;DHT22;10511;51.232;9.420;2023-09-07T04:10:11;16.80;99.90
20700;DHT22;10511;51.232;9.420;2023-09-07T04:12:38;16.80;99.90
20700;DHT22;10511;51.232;9.420;2023-09-07T04:15:08;16.80;99.90
20700;DHT22;10511;51.232;9.420;2023-09-07T04:17:36;16.80;99.90
20700;DHT22;10511;51.232;9.420;2023-09-07T04:20:07;16.80;99.90
20700;DHT22;10511;51.232;9.420;2023-09-07T04:22:36;16.80;99.90
20700;DHT22;10511;51.232;9.420;2023-09-07T04:25:03;16.80;99.90
20700;DHT22;10511;51.232;9.420;2023-09-07T04:27:30;16.80;99.90
20700;DHT22;10511;51.232;9.420;2023-09-07T04:29:57;16.60;99.90
20700;DHT22;10511;51.232;9.420;2023-09-07T04:32:26;16.60;99.90
20700;DHT22;10511;51.232;9.420;2023-09-07T04:34:54;16.60;99.90
20700;DHT22;10511;51.232;9.420;2023-09-07T04:37:21;16.60;99.90
20700;DHT22;10511;51.232;9.420;2023-09-07T04:39:51;16.60;99.90
20700;DHT22;10511;51.232;9.420;2023-09-07T04:42:19;16.50;99.90
20700;DHT22;10511;51.232;9.420;2023-09-07T04:44:46;16.40;99.90
20700;DHT22;10511;51.232;9.420;2023-09-07T04:47:13;16.50;99.90
20700;DHT22;10511;51.232;9.420;2023-09-07T04:49:42;16.50;99.90
20700;DHT22;10511;51.232;9.420;2023-09-07T04:52:09;16.50;99.90
20700;DHT22;10511;51.232;9.420;2023-09-07T04:54:36;16.50;99.90
20700;DHT22;10511;51.232;9.420;2023-09-07T04:57:03;16.30;99.90
20700;DHT22;10511;51.232;9.420;2023-09-07T04:59:30;16.30;99.90
20700;DHT22;10511;51.232;9.420;2023-09-07T05:01:59;16.40;99.90
20700;DHT22;10511;51.232;9.420;2023-09-07T05:04:27;16.40;99.90
20700;DHT22;10511;51.232;9.420;2023-09-07T05:06:56;16.40;99.90
20700;DHT22;10511;51.232;9.420;2023-09-07T05:09:23;16.20;99.90
20700;DHT22;10511;51.232;9.420;2023-09-07T05:11:51;16.20;99.90
20700;DHT22;10511;51.232;9.420;2023-09-07T05:14:19;16.20;99.90
20700;DHT22;10511;51.232;9.420;2023-09-07T05:16:46;16.20;99.90
20700;DHT22;10511;51.232;9.420;2023-09-07T05:19:13;16.20;99.90
20700;DHT22;10511;51.232;9.420;2023-09-07T05:21:40;16.20;99.90
20700;DHT22;10511;51.232;9.420;2023-09-07T05:24:08;16.20;99.90
20700;DHT22;10511;51.232;9.420;2023-09-07T05:26:35;16.10;99.90
20700;DHT22;10511;51.232;9.420;2023-09-07T05:29:02;16.00;99.90
20700;DHT22;10511;51.232;9.420;2023-09-07T05:31:29;16.10;99.90
20700;DHT22;10511;51.232;9.420;2023-09-07T05:33:56;16.10;99.90
20700;DHT22;10511;51.232;9.420;2023-09-07T05:36:23;16.20;99.90
20700;DHT22;10511;51.232;9.420;2023-09-07T05:38:50;16.40;99.90
20700;DHT22;10511;51.232;9.420;2023-09-07T05:41:18;16.50;99.90
20700;DHT22;10511;51.232;9.420;2023-09-07T05:43:46;16.70;99.90
20700;DHT22;10511;51.232;9.420;2023-09-07T05:46:14;16.80;99.90
20700;DHT22;10511;51.232;9.420;2023-09-07T05:48:41;16.80;99.90
20700;DHT22;10511;51.232;9.420;2023-09-07T05:51:08;16.70;99.90
20700;DHT22;10511;51.232;9.420;2023-09-07T05:53:35;16.70;99.90
20700;DHT22;10511;51.232;9.420;2023-09-07T05:56:02;16.70;99.90
20700;DHT22;10511;51.232;9.420;2023-09-07T05:58:30;16.60;99.90
20700;DHT22;10511;51.232;9.420;2023-09-07T06:00:58;16.70;99.90
20700;DHT22;10511;51.232;9.420;2023-09-07T06:03:24;16.80;99.90
20700;DHT22;10511;51.232;9.420;2023-09-07T06:05:51;16.80;99.90
20700;DHT22;10511;51.232;9.420;2023-09-07T06:08:19;16.90;99.90
20700;DHT22;10511;51.232;9.420;2023-09-07T06:10:46;16.90;99.90
20700;DHT22;10511;51.232;9.420;2023-09-07T06:13:13;17.00;99.90
20700;DHT22;10511;51.232;9.420;2023-09-07T06:15:42;17.00;99.90
20700;DHT22;10511;51.232;9.420;2023-09-07T06:18:09;16.90;99.90
20700;DHT22;10511;51.232;9.420;2023-09-07T06:20:36;16.70;99.90
20700;DHT22;10511;51.232;9.420;2023-09-07T06:23:03;16.70;99.90
20700;DHT22;10511;51.232;9.420;2023-09-07T06:25:30;16.80;99.90
20700;DHT22;10511;51.232;9.420;2023-09-07T06:27:57;16.90;99.90
20700;DHT22;10511;51.232;9.420;2023-09-07T06:30:24;16.90;99.90
20700;DHT22;10511;51.232;9.420;2023-09-07T06:32:52;17.00;99.90
20700;DHT22;10511;51.232;9.420;2023-09-07T06:35:19;17.10;99.90
20700;DHT22;10511;51.232;9.420;2023-09-07T06:37:46;17.20;99.90
20700;DHT22;10511;51.232;9.420;2023-09-07T06:40:13;17.20;99.90
20700;DHT22;10511;51.232;9.420;2023-09-07T06:42:41;17.20;99.90
20700;DHT22;10511;51.232;9.420;2023-09-07T06:45:08;17.30;99.90
20700;DHT22;10511;51.232;9.420;2023-09-07T06:47:36;17.50;99.90
20700;DHT22;10511;51.232;9.420;2023-09-07T06:50:05;17.60;99.90
20700;DHT22;10511;51.232;9.420;2023-09-07T06:52:32;17.60;99.90
20700;DHT22;10511;51.232;9.420;2023-09-07T06:54:59;17.70;99.90
20700;DHT22;10511;51.232;9.420;2023-09-07T06:57:26;17.80;99.90
20700;DHT22;10511;51.232;9.420;2023-09-07T06:59:53;17.90;99.90
20700;DHT22;10511;51.232;9.420;2023-09-07T07:02:20;17.90;99.90
20700;DHT22;10511;51.232;9.420;2023-09-07T07:04:47;17.90;99.90
20700;DHT22;10511;51.232;9.420;2023-09-07T07:07:15;17.90;99.90
20700;DHT22;10511;51.232;9.420;2023-09-07T07:09:42;18.00;99.90
20700;DHT22;10511;51.232;9.420;2023-09-07T07:12:09;18.10;99.90
20700;DHT22;10511;51.232;9.420;2023-09-07T07:14:36;18.20;99.90
20700;DHT22;10511;51.232;9.420;2023-09-07T07:17:03;18.30;99.90
20700;DHT22;10511;51.232;9.420;2023-09-07T07:19:30;18.40;99.90
20700;DHT22;10511;51.232;9.420;2023-09-07T07:21:57;18.50;99.90
20700;DHT22;10511;51.232;9.420;2023-09-07T07:24:26;18.60;99.90
20700;DHT22;10511;51.232;9.420;2023-09-07T07:26:52;18.70;99.90
20700;DHT22;10511;51.232;9.420;2023-09-07T07:29:19;18.80;99.90
20700;DHT22;10511;51.232;9.420;2023-09-07T07:31:46;19.00;99.90
20700;DHT22;10511;51.232;9.420;2023-09-07T07:34:14;19.10;99.90
20700;DHT22;10511;51.232;9.420;2023-09-07T07:36:40;19.20;99.90
20700;DHT22;10511;51.232;9.420;2023-09-07T07:39:07;19.30;99.90
20700;DHT22;10511;51.232;9.420;2023-09-07T07:41:36;19.40;99.90
20700;DHT22;10511;51.232;9.420;2023-09-07T07:44:04;19.50;99.90
20700;DHT22;10511;51.232;9.420;2023-09-07T07:46:31;19.60;99.90
20700;DHT22;10511;51.232;9.420;2023-09-07T07:48:57;19.80;99.90
20700;DHT22;10511;51.232;9.420;2023-09-07T07:51:25;19.90;99.90
20700;DHT22;10511;51.232;9.420;2023-09-07T07:53:54;20.00;99.90
20700;DHT22;10511;51.232;9.420;2023-09-07T07:56:21;20.20;99.90
20700;DHT22;10511;51.232;9.420;2023-09-07T07:58:50;20.30;99.90
20700;DHT22;10511;51.232;9.420;2023-09-07T08:01:18;20.30;99.90
20700;DHT22;10511;51.232;9.420;2023-09-07T08:03:46;20.50;99.90
20700;DHT22;10511;51.232;9.420;2023-09-07T08:06:13;20.60;99.90
20700;DHT22;10511;51.232;9.420;2023-09-07T08:08:40;20.80;99.90
20700;DHT22;10511;51.232;9.420;2023-09-07T08:11:07;21.10;99.90
20700;DHT22;10511;51.232;9.420;2023-09-07T08:13:35;21.20;99.90
20700;DHT22;10511;51.232;9.420;2023-09-07T08:16:04;21.40;99.90
20700;DHT22;10511;51.232;9.420;2023-09-07T08:18:33;21.50;99.90
20700;DHT22;10511;51.232;9.420;2023-09-07T08:21:00;21.60;99.90
20700;DHT22;10511;51.232;9.420;2023-09-07T08:23:27;21.60;99.90
20700;DHT22;10511;51.232;9.420;2023-09-07T08:25:54;21.80;99.90
20700;DHT22;10511;51.232;9.420;2023-09-07T08:28:21;21.90;99.90
20700;DHT22;10511;51.232;9.420;2023-09-07T08:30:49;22.00;99.90
20700;DHT22;10511;51.232;9.420;2023-09-07T08:33:20;22.10;99.90
20700;DHT22;10511;51.232;9.420;2023-09-07T08:35:52;22.30;99.90
20700;DHT22;10511;51.232;9.420;2023-09-07T08:38:20;22.40;99.90
20700;DHT22;10511;51.232;9.420;2023-09-07T08:40:50;22.60;99.90
20700;DHT22;10511;51.232;9.420;2023-09-07T08:43:19;22.70;99.90
20700;DHT22;10511;51.232;9.420;2023-09-07T08:45:51;22.80;99.90
20700;DHT22;10511;51.232;9.420;2023-09-07T08:48:20;22.90;99.90
20700;DHT22;10511;51.232;9.420;2023-09-07T08:50:48;22.90;99.90
20700;DHT22;10511;51.232;9.420;2023-09-07T08:53:18;23.00;99.90
20700;DHT22;10511;51.232;9.420;2023-09-07T08:55:46;23.20;99.90
20700;DHT22;10511;51.232;9.420;2023-09-07T08:58:13;23.40;99.90
20700;DHT22;10511;51.232;9.420;2023-09-07T09:00:42;23.60;99.90
20700;DHT22;10511;51.232;9.420;2023-09-07T09:03:09;23.80;99.90
20700;DHT22;10511;51.232;9.420;2023-09-07T09:05:40;23.90;99.90
20700;DHT22;10511;51.232;9.420;2023-09-07T09:08:07;24.10;99.90
20700;DHT22;10511;51.232;9.420;2023-09-07T09:10:37;24.20;99.90
20700;DHT22;10511;51.232;9.420;2023-09-07T09:13:04;24.30;99.90
20700;DHT22;10511;51.232;9.420;2023-09-07T09:15:31;24.40;99.90
20700;DHT22;10511;51.232;9.420;2023-09-07T09:17:58;24.50;99.90
20700;DHT22;10511;51.232;9.420;2023-09-07T09:20:35;24.70;99.90
20700;DHT22;10511;51.232;9.420;2023-09-07T09:23:05;24.80;99.90
20700;DHT22;10511;51.232;9.420;2023-09-07T09:25:32;24.80;99.90
20700;DHT22;10511;51.232;9.420;2023-09-07T09:27:59;24.80;99.90
20700;DHT22;10511;51.232;9.420;2023-09-07T09:30:27;25.00;99.90
20700;DHT22;10511;51.232;9.420;2023-09-07T09:32:54;25.10;99.90
20700;DHT22;10511;51.232;9.420;2023-09-07T09:35:21;25.30;99.90
20700;DHT22;10511;51.232;9.420;2023-09-07T09:37:50;25.50;99.90
20700;DHT22;10511;51.232;9.420;2023-09-07T09:40:18;25.50;99.90
20700;DHT22;10511;51.232;9.420;2023-09-07T09:42:46;25.60;99.90
20700;DHT22;10511;51.232;9.420;2023-09-07T09:45:13;25.80;99.90
20700;DHT22;10511;51.232;9.420;2023-09-07T09:47:41;25.80;99.90
20700;DHT22;10511;51.232;9.420;2023-09-07T09:50:10;26.00;99.90
20700;DHT22;10511;51.232;9.420;2023-09-07T09:52:37;25.90;99.90
20700;DHT22;10511;51.232;9.420;2023-09-07T09:55:06;25.70;99.90
20700;DHT22;10511;51.232;9.420;2023-09-07T09:57:35;25.90;99.90
20700;DHT22;10511;51.232;9.420;2023-09-07T10:00:04;26.00;99.90
20700;DHT22;10511;51.232;9.420;2023-09-07T10:02:57;26.10;99.90
20700;DHT22;10511;51.232;9.420;2023-09-07T10:05:25;26.30;99.90
20700;DHT22;10511;51.232;9.420;2023-09-07T10:07:52;26.50;99.90
20700;DHT22;10511;51.232;9.420;2023-09-07T10:10:20;26.60;99.90
20700;DHT22;10511;51.232;9.420;2023-09-07T10:12:53;26.60;99.90
20700;DHT22;10511;51.232;9.420;2023-09-07T10:15:21;26.80;99.90
20700;DHT22;10511;51.232;9.420;2023-09-07T10:17:48;26.90;99.90
20700;DHT22;10511;51.232;9.420;2023-09-07T10:20:19;26.80;99.90
20700;DHT22;10511;51.232;9.420;2023-09-07T10:22:49;26.90;99.90
20700;DHT22;10511;51.232;9.420;2023-09-07T10:25:20;26.90;99.90
20700;DHT22;10511;51.232;9.420;2023-09-07T10:27:48;27.10;99.90
20700;DHT22;10511;51.232;9.420;2023-09-07T10:30:16;27.20;99.90
20700;DHT22;10511;51.232;9.420;2023-09-07T10:32:47;27.40;99.90
20700;DHT22;10511;51.232;9.420;2023-09-07T10:35:15;27.40;99.90
20700;DHT22;10511;51.232;9.420;2023-09-07T10:37:44;27.50;99.90
20700;DHT22;10511;51.232;9.420;2023-09-07T10:40:12;27.50;99.90
20700;DHT22;10511;51.232;9.420;2023-09-07T10:42:41;27.30;99.90
20700;DHT22;10511;51.232;9.420;2023-09-07T10:45:10;27.40;99.90
20700;DHT22;10511;51.232;9.420;2023-09-07T10:47:42;27.60;99.90
20700;DHT22;10511;51.232;9.420;2023-09-07T10:50:11;27.70;99.90
20700;DHT22;10511;51.232;9.420;2023-09-07T10:52:40;27.60;99.90
20700;DHT22;10511;51.232;9.420;2023-09-07T10:55:08;27.70;99.90
20700;DHT22;10511;51.232;9.420;2023-09-07T10:57:46;27.60;99.90
20700;DHT22;10511;51.232;9.420;2023-09-07T11:00:14;27.70;99.90
20700;DHT22;10511;51.232;9.420;2023-09-07T11:02:43;27.70;99.90
20700;DHT22;10511;51.232;9.420;2023-09-07T11:05:10;27.80;99.90
20700;DHT22;10511;51.232;9.420;2023-09-07T11:07:38;27.80;99.90
20700;DHT22;10511;51.232;9.420;2023-09-07T11:10:09;27.90;99.90
20700;DHT22;10511;51.232;9.420;2023-09-07T11:12:37;27.80;99.90
20700;DHT22;10511;51.232;9.420;2023-09-07T11:15:07;27.90;99.90
20700;DHT22;10511;51.232;9.420;2023-09-07T11:17:37;27.90;99.90
20700;DHT22;10511;51.232;9.420;2023-09-07T11:20:08;27.90;99.90
20700;DHT22;10511;51.232;9.420;2023-09-07T11:22:36;27.90;99.90
20700;DHT22;10511;51.232;9.420;2023-09-07T11:25:05;27.90;99.70
20700;DHT22;10511;51.232;9.420;2023-09-07T11:27:32;28.10;99.00
20700;DHT22;10511;51.232;9.420;2023-09-07T11:30:00;28.20;99.00
20700;DHT22;10511;51.232;9.420;2023-09-07T11:32:33;27.90;99.90
20700;DHT22;10511;51.232;9.420;2023-09-07T11:35:00;27.90;99.80
20700;DHT22;10511;51.232;9.420;2023-09-07T11:37:29;28.00;99.70
20700;DHT22;10511;51.232;9.420;2023-09-07T11:39:56;28.20;99.80
20700;DHT22;10511;51.232;9.420;2023-09-07T11:42:23;28.30;98.70
20700;DHT22;10511;51.232;9.420;2023-09-07T11:44:49;28.40;99.20
20700;DHT22;10511;51.232;9.420;2023-09-07T11:47:16;28.50;99.90
20700;DHT22;10511;51.232;9.420;2023-09-07T11:49:43;28.50;98.80
20700;DHT22;10511;51.232;9.420;2023-09-07T11:52:11;28.50;99.50
20700;DHT22;10511;51.232;9.420;2023-09-07T11:54:39;28.60;97.90
20700;DHT22;10511;51.232;9.420;2023-09-07T11:57:06;28.50;98.70
20700;DHT22;10511;51.232;9.420;2023-09-07T11:59:33;28.30;96.80
20700;DHT22;10511;51.232;9.420;2023-09-07T12:02:00;28.30;98.20
20700;DHT22;10511;51.232;9.420;2023-09-07T12:04:27;28.60;97.80
20700;DHT22;10511;51.232;9.420;2023-09-07T12:06:54;28.70;96.00
20700;DHT22;10511;51.232;9.420;2023-09-07T12:09:21;28.60;96.20
20700;DHT22;10511;51.232;9.420;2023-09-07T12:11:49;28.40;96.90
20700;DHT22;10511;51.232;9.420;2023-09-07T12:14:16;28.60;97.10
20700;DHT22;10511;51.232;9.420;2023-09-07T12:16:43;28.50;96.80
20700;DHT22;10511;51.232;9.420;2023-09-07T12:19:10;28.50;95.60
20700;DHT22;10511;51.232;9.420;2023-09-07T12:21:37;28.60;96.50
20700;DHT22;10511;51.232;9.420;2023-09-07T12:24:05;28.70;95.70
20700;DHT22;10511;51.232;9.420;2023-09-07T12:26:32;28.80;94.20
20700;DHT22;10511;51.232;9.420;2023-09-07T12:29:00;28.70;94.80
20700;DHT22;10511;51.232;9.420;2023-09-07T12:31:27;28.60;94.40
20700;DHT22;10511;51.232;9.420;2023-09-07T12:33:54;28.50;94.50
20700;DHT22;10511;51.232;9.420;2023-09-07T12:36:21;28.60;94.90
20700;DHT22;10511;51.232;9.420;2023-09-07T12:38:48;28.60;94.50
20700;DHT22;10511;51.232;9.420;2023-09-07T12:41:15;28.60;94.20
20700;DHT22;10511;51.232;9.420;2023-09-07T12:43:42;28.80;93.60
20700;DHT22;10511;51.232;9.420;2023-09-07T12:46:10;28.80;92.60
20700;DHT22;10511;51.232;9.420;2023-09-07T12:48:38;29.00;92.30
20700;DHT22;10511;51.232;9.420;2023-09-07T12:51:05;29.00;92.00
20700;DHT22;10511;51.232;9.420;2023-09-07T12:53:31;29.10;94.00
20700;DHT22;10511;51.232;9.420;2023-09-07T12:55:58;29.10;93.20
20700;DHT22;10511;51.232;9.420;2023-09-07T12:58:27;29.00;93.90
20700;DHT22;10511;51.232;9.420;2023-09-07T13:00:54;29.00;94.80
20700;DHT22;10511;51.232;9.420;2023-09-07T13:03:22;29.20;94.30
20700;DHT22;10511;51.232;9.420;2023-09-07T13:05:49;29.20;94.60
20700;DHT22;10511;51.232;9.420;2023-09-07T13:08:16;29.20;94.20
20700;DHT22;10511;51.232;9.420;2023-09-07T13:10:43;29.30;94.40
20700;DHT22;10511;51.232;9.420;2023-09-07T13:13:10;29.30;92.60
20700;DHT22;10511;51.232;9.420;2023-09-07T13:15:37;29.40;93.70
20700;DHT22;10511;51.232;9.420;2023-09-07T13:18:04;29.20;93.10
20700;DHT22;10511;51.232;9.420;2023-09-07T13:20:32;29.00;93.10
20700;DHT22;10511;51.232;9.420;2023-09-07T13:22:59;28.80;93.80
20700;DHT22;10511;51.232;9.420;2023-09-07T13:25:26;28.80;94.60
20700;DHT22;10511;51.232;9.420;2023-09-07T13:27:53;28.70;95.30
20700;DHT22;10511;51.232;9.420;2023-09-07T13:30:20;28.80;94.70
20700;DHT22;10511;51.232;9.420;2023-09-07T13:32:47;28.60;94.00
20700;DHT22;10511;51.232;9.420;2023-09-07T13:35:15;28.60;93.90
20700;DHT22;10511;51.232;9.420;2023-09-07T13:37:44;28.50;94.10
20700;DHT22;10511;51.232;9.420;2023-09-07T13:40:11;28.60;95.00
20700;DHT22;10511;51.232;9.420;2023-09-07T13:42:40;28.60;94.20
20700;DHT22;10511;51.232;9.420;2023-09-07T13:45:09;28.60;94.40
20700;DHT22;10511;51.232;9.420;2023-09-07T13:47:36;28.50;94.40
20700;DHT22;10511;51.232;9.420;2023-09-07T13:50:04;28.30;94.10
20700;DHT22;10511;51.232;9.420;2023-09-07T13:52:31;28.40;95.10
20700;DHT22;10511;51.232;9.420;2023-09-07T13:54:59;28.50;95.20
20700;DHT22;10511;51.232;9.420;2023-09-07T13:57:26;28.50;93.90
20700;DHT22;10511;51.232;9.420;2023-09-07T13:59:53;28.50;94.80
20700;DHT22;10511;51.232;9.420;2023-09-07T14:02:20;28.60;96.10
20700;DHT22;10511;51.232;9.420;2023-09-07T14:04:47;28.60;95.30
20700;DHT22;10511;51.232;9.420;2023-09-07T14:07:15;28.40;95.60
20700;DHT22;10511;51.232;9.420;2023-09-07T14:09:42;28.40;95.40
20700;DHT22;10511;51.232;9.420;2023-09-07T14:12:11;28.20;95.40
20700;DHT22;10511;51.232;9.420;2023-09-07T14:14:38;28.20;96.00
20700;DHT22;10511;51.232;9.420;2023-09-07T14:17:06;28.20;95.20
20700;DHT22;10511;51.232;9.420;2023-09-07T14:19:33;28.20;95.60
20700;DHT22;10511;51.232;9.420;2023-09-07T14:22:00;28.10;95.60
20700;DHT22;10511;51.232;9.420;2023-09-07T14:24:27;28.10;96.60
20700;DHT22;10511;51.232;9.420;2023-09-07T14:26:53;28.10;96.30
20700;DHT22;10511;51.232;9.420;2023-09-07T14:29:22;27.90;96.20
20700;DHT22;10511;51.232;9.420;2023-09-07T14:31:49;28.00;97.00
20700;DHT22;10511;51.232;9.420;2023-09-07T14:34:16;27.90;96.10
20700;DHT22;10511;51.232;9.420;2023-09-07T14:36:43;27.80;95.70
20700;DHT22;10511;51.232;9.420;2023-09-07T14:39:10;27.70;96.00
20700;DHT22;10511;51.232;9.420;2023-09-07T14:41:37;27.70;97.00
20700;DHT22;10511;51.232;9.420;2023-09-07T14:44:05;27.70;96.40
20700;DHT22;10511;51.232;9.420;2023-09-07T14:46:38;27.70;96.90
20700;DHT22;10511;51.232;9.420;2023-09-07T14:49:05;27.70;96.80
20700;DHT22;10511;51.232;9.420;2023-09-07T14:51:32;27.70;97.30
20700;DHT22;10511;51.232;9.420;2023-09-07T14:53:59;27.80;96.70
20700;DHT22;10511;51.232;9.420;2023-09-07T14:56:26;27.80;97.10
20700;DHT22;10511;51.232;9.420;2023-09-07T14:58:54;27.80;97.60
20700;DHT22;10511;51.232;9.420;2023-09-07T15:01:21;27.80;97.10
20700;DHT22;10511;51.232;9.420;2023-09-07T15:03:49;27.80;97.10
20700;DHT22;10511;51.232;9.420;2023-09-07T15:06:16;27.70;97.60
20700;DHT22;10511;51.232;9.420;2023-09-07T15:08:44;27.80;97.10
20700;DHT22;10511;51.232;9.420;2023-09-07T15:11:11;27.80;96.60
20700;DHT22;10511;51.232;9.420;2023-09-07T15:13:38;27.80;96.80
20700;DHT22;10511;51.232;9.420;2023-09-07T15:16:06;27.60;96.40
20700;DHT22;10511;51.232;9.420;2023-09-07T15:18:33;27.40;96.10
20700;DHT22;10511;51.232;9.420;2023-09-07T15:21:02;27.40;97.00
20700;DHT22;10511;51.232;9.420;2023-09-07T15:23:29;27.30;97.10
20700;DHT22;10511;51.232;9.420;2023-09-07T15:25:56;27.30;97.60
20700;DHT22;10511;51.232;9.420;2023-09-07T15:28:23;27.40;97.80
20700;DHT22;10511;51.232;9.420;2023-09-07T15:30:50;27.40;97.20
20700;DHT22;10511;51.232;9.420;2023-09-07T15:33:16;27.40;97.80